createdAt,value
2022-07-29T00:01:30.402Z,14.10
2022-07-29T00:06:34.835Z,14.09
2022-07-29T00:11:39.858Z,14.04
2022-07-29T00:16:44.431Z,14.04
2022-07-29T00:21:49.335Z,14.03
2022-07-29T00:26:54.499Z,13.97
2022-07-29T00:31:59.147Z,13.87
2022-07-29T00:37:04.244Z,13.81
2022-07-29T00:42:09.897Z,13.76
2022-07-29T00:47:14.785Z,13.78
2022-07-29T00:52:19.434Z,13.77
2022-07-29T00:57:27.003Z,13.66
2022-07-29T01:02:32.343Z,13.67
2022-07-29T01:07:38.798Z,13.66
2022-07-29T01:12:46.878Z,13.62
2022-07-29T01:18:18.856Z,13.63
2022-07-29T01:23:54.971Z,13.50
2022-07-29T01:29:56.046Z,13.26
2022-07-29T01:35:21.819Z,13.10
2022-07-29T01:40:41.022Z,13.13
2022-07-29T01:45:54.347Z,13.16
2022-07-29T01:51:06.474Z,13.06
2022-07-29T01:56:13.036Z,12.98
2022-07-29T02:01:19.628Z,12.95
2022-07-29T02:06:25.947Z,12.90
2022-07-29T02:11:35.050Z,12.88
2022-07-29T02:16:42.895Z,12.80
2022-07-29T02:21:49.040Z,12.71
2022-07-29T02:26:58.300Z,12.59
2022-07-29T02:32:04.403Z,12.46
2022-07-29T02:37:13.597Z,12.33
2022-07-29T02:42:24.558Z,12.26
2022-07-29T02:47:51.475Z,12.22
2022-07-29T02:53:14.194Z,12.17
2022-07-29T02:58:32.540Z,12.13
2022-07-29T03:03:40.717Z,12.13
2022-07-29T03:08:46.763Z,12.03
2022-07-29T03:13:54.932Z,11.96
2022-07-29T03:19:01.325Z,11.90
2022-07-29T03:24:12.549Z,11.95
2022-07-29T03:29:17.222Z,11.94
2022-07-29T03:34:25.385Z,11.85
2022-07-29T03:39:36.249Z,11.78
2022-07-29T03:44:46.248Z,11.77
2022-07-29T03:49:55.931Z,11.83
2022-07-29T03:55:00.837Z,11.87
2022-07-29T04:00:07.351Z,11.96
2022-07-29T04:05:16.665Z,12.07
2022-07-29T04:10:30.061Z,12.16
2022-07-29T04:15:37.787Z,12.21
2022-07-29T04:20:42.395Z,12.32
2022-07-29T04:25:50.102Z,12.49
2022-07-29T04:30:55.931Z,12.70
2022-07-29T04:36:00.317Z,12.93
2022-07-29T04:41:05.777Z,13.18
2022-07-29T04:46:10.660Z,13.36
2022-07-29T04:51:17.061Z,13.58
2022-07-29T04:56:21.666Z,13.85
2022-07-29T05:01:26.487Z,14.13
2022-07-29T05:06:31.605Z,14.31
2022-07-29T05:11:36.331Z,14.48
2022-07-29T05:16:44.792Z,14.65
2022-07-29T05:21:51.361Z,14.98
2022-07-29T05:26:59.744Z,15.51
2022-07-29T05:32:08.287Z,15.85
2022-07-29T05:37:15.332Z,16.12
2022-07-29T05:42:20.073Z,16.47
2022-07-29T05:47:26.912Z,16.86
2022-07-29T05:52:32.223Z,17.33
2022-07-29T05:57:36.674Z,17.64
2022-07-29T06:02:41.566Z,17.79
2022-07-29T06:07:50.108Z,18.08
2022-07-29T06:12:58.684Z,18.40
2022-07-29T06:18:03.658Z,18.62
2022-07-29T06:23:12.386Z,18.85
2022-07-29T06:28:17.426Z,18.98
2022-07-29T06:33:23.164Z,19.23
2022-07-29T06:38:31.516Z,19.57
2022-07-29T06:43:51.944Z,19.76
2022-07-29T06:48:58.423Z,20.08
2022-07-29T06:54:03.822Z,20.28
2022-07-29T06:59:12.997Z,20.24
2022-07-29T07:04:19.644Z,20.30
2022-07-29T07:09:40.587Z,20.44
2022-07-29T07:14:45.851Z,20.62
2022-07-29T07:19:51.038Z,20.89
2022-07-29T07:24:59.306Z,21.06
2022-07-29T07:30:10.514Z,21.23
2022-07-29T07:35:16.079Z,21.59
2022-07-29T07:40:22.312Z,21.91
2022-07-29T07:45:27.851Z,22.22
2022-07-29T07:50:32.400Z,22.49
2022-07-29T08:01:08.936Z,22.60
2022-07-29T08:06:17.035Z,22.57
2022-07-29T08:11:24.683Z,22.88
2022-07-29T08:16:30.846Z,23.04
2022-07-29T08:21:36.236Z,23.04
2022-07-29T08:26:41.289Z,23.13
2022-07-29T08:31:47.887Z,23.36
2022-07-29T08:36:52.943Z,23.75
2022-07-29T08:41:59.619Z,23.59
2022-07-29T08:47:05.382Z,23.46
2022-07-29T08:52:17.692Z,23.85
2022-07-29T08:57:29.010Z,24.37
2022-07-29T09:02:42.647Z,24.88
2022-07-29T09:07:49.764Z,24.82
2022-07-29T09:12:56.519Z,25.15
2022-07-29T09:18:02.289Z,25.54
2022-07-29T09:23:10.571Z,25.93
2022-07-29T09:28:22.059Z,26.10
2022-07-29T09:33:41.909Z,26.24
2022-07-29T09:39:04.859Z,26.09
2022-07-29T09:44:18.914Z,26.45
2022-07-29T09:49:23.903Z,26.75
2022-07-29T09:54:31.875Z,26.49
2022-07-29T09:59:37.062Z,26.29
2022-07-29T10:04:55.923Z,26.67
2022-07-29T10:10:01.995Z,26.81
2022-07-29T10:15:07.999Z,27.12
2022-07-29T10:20:16.492Z,27.42
2022-07-29T10:25:23.566Z,27.50
2022-07-29T10:30:31.472Z,27.69
2022-07-29T10:35:52.530Z,27.97
2022-07-29T10:41:43.731Z,28.08
2022-07-29T10:46:49.828Z,28.53
2022-07-29T10:52:11.955Z,28.69
2022-07-29T10:57:53.251Z,28.43
2022-07-29T11:02:55.730Z,28.47
2022-07-29T11:08:19.958Z,28.67
2022-07-29T11:13:44.768Z,28.73
2022-07-29T11:19:13.614Z,28.37
2022-07-29T11:24:37.748Z,28.76
2022-07-29T11:30:05.933Z,29.09
2022-07-29T11:35:37.088Z,29.27
2022-07-29T11:40:44.507Z,29.13
2022-07-29T11:45:52.997Z,28.96
2022-07-29T11:50:58.904Z,28.46
2022-07-29T11:56:04.928Z,28.51
2022-07-29T12:01:16.694Z,28.66
2022-07-29T12:06:24.839Z,28.97
2022-07-29T12:11:30.324Z,28.96
2022-07-29T12:16:39.344Z,28.33
2022-07-29T12:21:56.566Z,28.03
2022-07-29T12:27:02.599Z,27.84
2022-07-29T12:32:19.342Z,27.68
2022-07-29T12:37:33.325Z,27.64
2022-07-29T12:43:12.487Z,27.39
2022-07-29T12:48:18.175Z,27.65
2022-07-29T12:53:23.096Z,27.88
2022-07-29T12:58:45.209Z,27.92
2022-07-29T13:03:57.132Z,27.81
2022-07-29T13:09:10.420Z,27.54
2022-07-29T13:14:40.851Z,27.18
2022-07-29T13:19:56.424Z,26.87
2022-07-29T13:25:04.256Z,26.86
2022-07-29T13:30:20.880Z,26.96
2022-07-29T13:35:28.322Z,27.05
2022-07-29T13:40:34.516Z,27.36
2022-07-29T13:45:40.823Z,27.74
2022-07-29T13:50:47.665Z,28.07
2022-07-29T13:55:55.149Z,28.19
2022-07-29T14:00:59.810Z,28.03
2022-07-29T14:06:07.878Z,27.54
2022-07-29T14:11:16.649Z,27.08
2022-07-29T14:16:30.181Z,26.77
2022-07-29T14:21:37.861Z,26.58
2022-07-29T14:26:46.260Z,26.39
2022-07-29T14:31:56.517Z,26.43
2022-07-29T14:37:03.663Z,26.87
2022-07-29T14:42:13.087Z,27.35
2022-07-29T14:47:20.532Z,27.40
2022-07-29T14:52:26.275Z,27.49
2022-07-29T14:57:43.163Z,27.48
2022-07-29T15:03:01.880Z,27.40
2022-07-29T15:08:10.049Z,27.47
2022-07-29T15:13:16.448Z,27.66
2022-07-29T15:18:25.765Z,27.70
2022-07-29T15:23:31.878Z,27.98
2022-07-29T15:28:36.502Z,28.24
2022-07-29T15:33:42.210Z,27.84
2022-07-29T15:38:47.231Z,27.87
2022-07-29T15:43:53.521Z,27.95
2022-07-29T15:48:58.806Z,27.60
2022-07-29T15:54:07.188Z,27.70
2022-07-29T15:59:22.209Z,28.25
2022-07-29T16:04:28.583Z,28.66
2022-07-29T16:09:33.837Z,29.00
2022-07-29T16:14:39.631Z,29.25
2022-07-29T16:19:48.871Z,29.24
2022-07-29T16:24:54.065Z,29.34
2022-07-29T16:30:00.745Z,29.12
2022-07-29T16:35:08.606Z,28.61
2022-07-29T16:40:13.649Z,27.89
2022-07-29T16:45:46.474Z,27.44
2022-07-29T16:50:53.745Z,27.31
2022-07-29T16:55:59.003Z,26.89
2022-07-29T17:01:04.331Z,26.39
2022-07-29T17:06:09.552Z,25.89
2022-07-29T17:11:16.151Z,25.68
2022-07-29T17:16:26.328Z,25.59
2022-07-29T17:21:31.267Z,25.21
2022-07-29T17:26:36.217Z,24.90
2022-07-29T17:31:40.840Z,24.52
2022-07-29T17:36:46.177Z,24.17
2022-07-29T17:41:52.144Z,23.85
2022-07-29T17:46:57.763Z,23.52
2022-07-29T17:52:02.563Z,23.24
2022-07-29T17:57:07.579Z,23.01
2022-07-29T18:02:14.937Z,22.75
2022-07-29T18:07:19.923Z,22.51
2022-07-29T18:12:24.285Z,22.21
2022-07-29T18:17:34.581Z,22.00
2022-07-29T18:22:56.672Z,21.79
2022-07-29T18:28:01.806Z,21.61
2022-07-29T18:33:25.984Z,21.42
2022-07-29T18:38:31.063Z,21.21
2022-07-29T18:43:43.998Z,21.02
2022-07-29T18:48:54.668Z,20.86
2022-07-29T18:54:01.313Z,20.66
2022-07-29T18:59:07.785Z,20.40
2022-07-29T19:04:16.967Z,20.18
2022-07-29T19:09:24.511Z,19.99
2022-07-29T19:14:30.270Z,19.77
2022-07-29T19:19:36.043Z,19.60
2022-07-29T19:24:44.173Z,19.42
2022-07-29T19:29:49.319Z,19.23
2022-07-29T19:35:13.777Z,19.05
2022-07-29T19:40:21.134Z,18.84
2022-07-29T19:45:27.188Z,18.71
2022-07-29T19:50:36.917Z,18.56
2022-07-29T19:55:44.308Z,18.40
2022-07-29T20:00:51.988Z,18.25
2022-07-29T20:05:57.700Z,18.16
2022-07-29T20:11:04.807Z,18.07
2022-07-29T20:16:10.054Z,17.95
2022-07-29T20:21:14.861Z,17.81
2022-07-29T20:26:19.787Z,17.72
2022-07-29T20:31:25.289Z,17.59
2022-07-29T20:36:31.472Z,17.43
2022-07-29T20:41:37.504Z,17.32
2022-07-29T20:46:43.505Z,17.23
2022-07-29T20:51:47.629Z,17.10
2022-07-29T20:56:51.968Z,17.01
2022-07-29T21:01:56.386Z,16.91
2022-07-29T21:07:00.888Z,16.79
2022-07-29T21:12:05.975Z,16.73
2022-07-29T21:17:10.756Z,16.60
2022-07-29T21:22:15.109Z,16.56
2022-07-29T21:27:38.565Z,16.62
2022-07-29T21:32:42.971Z,16.59
2022-07-29T21:37:47.367Z,16.47
2022-07-29T21:42:51.515Z,16.33
2022-07-29T21:47:55.948Z,16.19
2022-07-29T21:53:00.622Z,16.03
2022-07-29T21:58:05.438Z,15.90
2022-07-29T22:03:10.604Z,15.81
2022-07-29T22:08:15.139Z,15.81
2022-07-29T22:13:19.285Z,15.74
2022-07-29T22:18:23.309Z,15.65
2022-07-29T22:23:27.558Z,15.56
2022-07-29T22:28:31.905Z,15.44
2022-07-29T22:33:36.038Z,15.30
2022-07-29T22:38:40.365Z,15.21
2022-07-29T22:43:44.604Z,15.19
2022-07-29T22:48:48.675Z,15.25
2022-07-29T22:53:53.084Z,15.21
2022-07-29T22:58:57.417Z,15.11
2022-07-29T23:04:01.625Z,15.08
2022-07-29T23:09:06.844Z,15.02
2022-07-29T23:14:11.277Z,14.85
2022-07-29T23:19:15.620Z,14.79
2022-07-29T23:24:32.129Z,14.80
2022-07-29T23:29:36.932Z,14.76
2022-07-29T23:34:41.254Z,14.74
2022-07-29T23:39:45.587Z,14.69
2022-07-29T23:44:50.118Z,14.63
2022-07-29T23:49:56.610Z,14.57
2022-07-29T23:55:37.333Z,14.55
